Time;durP1;ratioP1;P1;durP2;ratioP2;P2;SDS_P1;SDS_P2;PMS_P1;PMS_P2;Temp;Humidity;BMP_temperature;BMP_pressure;BME280_temperature;BME280_humidity;BME280_pressure;Samples;Min_cycle;Max_cycle;Signal;HPM_P1;HPM_P2
2021/07/27 00:01:39;;;;;;;12.60;11.43;;;;;;;22.19;68.26;100622.34;5061377;28;20165;-66
2021/07/27 00:04:04;;;;;;;12.70;11.47;;;;;;;22.09;68.30;100617.47;5060777;28;20173;-65
2021/07/27 00:06:30;;;;;;;12.77;11.67;;;;;;;22.26;67.52;100619.41;5060809;28;20263;-65
2021/07/27 00:08:55;;;;;;;11.77;10.70;;;;;;;22.17;68.30;100618.03;5061069;28;20249;-65
2021/07/27 00:11:20;;;;;;;12.37;11.30;;;;;;;22.16;68.43;100609.19;5060703;28;20184;-64
2021/07/27 00:13:46;;;;;;;12.10;11.00;;;;;;;22.21;68.66;100609.84;5060515;28;20184;-65
2021/07/27 00:16:11;;;;;;;12.07;10.97;;;;;;;22.34;67.82;100617.34;5061090;28;20253;-65
2021/07/27 00:18:36;;;;;;;14.37;11.83;;;;;;;22.33;68.14;100608.50;5060525;28;20223;-64
2021/07/27 00:21:03;;;;;;;12.77;11.57;;;;;;;22.28;68.52;100606.97;5060360;28;20261;-65
2021/07/27 00:23:28;;;;;;;14.80;12.30;;;;;;;22.33;68.94;100599.66;5060164;28;20316;-65
2021/07/27 00:25:53;;;;;;;13.13;11.87;;;;;;;22.37;68.52;100598.66;5060380;28;20454;-65
2021/07/27 00:28:19;;;;;;;18.63;16.70;;;;;;;22.08;69.51;100598.00;5060476;28;20237;-65
2021/07/27 00:30:44;;;;;;;20.77;18.57;;;;;;;21.91;69.98;100597.84;5060154;28;20184;-64
2021/07/27 00:33:10;;;;;;;22.73;20.30;;;;;;;22.01;69.72;100604.50;5060087;28;20223;-65
2021/07/27 00:35:35;;;;;;;14.73;11.73;;;;;;;22.28;69.12;100599.00;5060703;28;20181;-65
2021/07/27 00:38:10;;;;;;;13.63;12.07;;;;;;;22.18;69.23;100601.16;5060147;28;20296;-65
2021/07/27 00:40:36;;;;;;;14.27;12.87;;;;;;;22.04;69.90;100607.00;5060254;28;20284;-65
2021/07/27 00:43:04;;;;;;;20.57;18.50;;;;;;;21.86;70.44;100606.81;5060013;28;20518;-65
2021/07/27 00:45:29;;;;;;;13.27;11.97;;;;;;;22.01;70.64;100599.19;5059990;28;20442;-65
2021/07/27 00:47:55;;;;;;;13.93;11.30;;;;;;;22.21;69.65;100590.41;5060310;28;20781;-64
2021/07/27 00:50:20;;;;;;;18.43;14.93;;;;;;;22.09;70.28;100594.44;5059905;28;20630;-64
2021/07/27 00:52:45;;;;;;;22.53;17.87;;;;;;;21.93;70.48;100590.66;5059916;28;20526;-65
2021/07/27 00:55:11;;;;;;;12.97;11.30;;;;;;;21.71;70.89;100586.22;5060438;28;20169;-65
2021/07/27 00:57:38;;;;;;;13.80;12.40;;;;;;;21.70;71.23;100587.13;5059942;28;20177;-66
2021/07/27 01:00:04;;;;;;;18.37;14.80;;;;;;;21.46;71.69;100589.78;5059962;28;20485;-65
2021/07/27 01:02:30;;;;;;;11.87;10.53;;;;;;;21.76;69.38;100591.34;5060032;28;20818;-65
2021/07/27 01:04:56;;;;;;;11.70;10.50;;;;;;;21.70;69.56;100587.13;5059692;28;20420;-65
2021/07/27 01:07:25;;;;;;;11.93;10.83;;;;;;;21.59;69.91;100581.41;5059036;28;20468;-65
2021/07/27 01:09:50;;;;;;;13.70;11.67;;;;;;;21.60;69.64;100580.47;5060081;28;20170;-63
2021/07/27 01:12:15;;;;;;;11.67;10.63;;;;;;;21.74;69.21;100588.75;5059563;28;20422;-64
2021/07/27 01:14:41;;;;;;;11.00;10.00;;;;;;;21.85;67.43;100578.59;5059553;28;20236;-65
2021/07/27 01:17:06;;;;;;;11.33;10.33;;;;;;;21.80;67.28;100583.19;5059969;28;20177;-65
2021/07/27 01:38:56;;;;;;;9.67;8.87;;;;;;;21.84;63.64;100587.47;5059209;28;20493;-66
2021/07/27 01:43:49;;;;;;;11.03;10.03;;;;;;;21.70;64.70;100589.78;5059155;28;20417;-67
2021/07/27 01:46:15;;;;;;;10.03;9.13;;;;;;;21.41;64.86;100582.94;5058788;28;20468;-66
2021/07/27 01:48:41;;;;;;;10.10;9.20;;;;;;;21.44;65.22;100594.28;5058765;28;20431;-66
2021/07/27 01:51:06;;;;;;;10.00;9.13;;;;;;;21.44;65.00;100599.59;5059414;28;20408;-65
2021/07/27 01:53:56;;;;;;;10.30;9.27;;;;;;;21.40;65.02;100592.66;5058843;28;20170;-64
2021/07/27 01:56:23;;;;;;;11.10;10.03;;;;;;;21.34;64.65;100603.53;5058865;28;20524;-65
2021/07/27 01:58:50;;;;;;;11.20;9.97;;;;;;;21.64;64.18;100603.31;5041395;28;20477;-64
2021/07/27 02:01:16;;;;;;;17.47;15.83;;;;;;;21.43;65.09;100597.00;5057823;28;20420;-65
2021/07/27 02:03:41;;;;;;;10.93;10.13;;;;;;;21.68;64.35;100602.25;5059638;28;20444;-66
2021/07/27 02:06:07;;;;;;;14.07;12.77;;;;;;;21.50;64.87;100617.94;5057288;28;20452;-65
2021/07/27 02:08:32;;;;;;;11.30;10.40;;;;;;;21.18;65.93;100619.97;5058555;28;20181;-64
2021/07/27 02:11:03;;;;;;;11.97;10.87;;;;;;;21.32;65.42;100619.47;5047962;28;20182;-66
2021/07/27 02:13:30;;;;;;;11.50;10.60;;;;;;;21.16;66.05;100626.25;5038588;28;20532;-67
2021/07/27 02:15:56;;;;;;;11.30;10.30;;;;;;;21.17;66.18;100625.34;5038471;28;20417;-65
2021/07/27 02:18:21;;;;;;;15.20;11.10;;;;;;;21.40;65.11;100628.94;5038808;28;20424;-66
2021/07/27 02:20:46;;;;;;;11.67;10.77;;;;;;;21.47;65.13;100620.72;5038425;28;20456;-66
2021/07/27 02:23:12;;;;;;;13.13;10.80;;;;;;;21.25;65.77;100622.41;5038189;28;20321;-66
2021/07/27 02:25:37;;;;;;;12.43;11.33;;;;;;;21.21;65.97;100619.00;5038988;28;20185;-66
2021/07/27 02:28:03;;;;;;;13.30;12.00;;;;;;;21.03;66.53;100624.06;5038396;28;20213;-66
2021/07/27 02:30:32;;;;;;;12.63;11.53;;;;;;;20.57;68.05;100632.72;5038215;28;20178;-68
2021/07/27 02:32:57;;;;;;;11.87;10.87;;;;;;;20.98;66.84;100627.78;5038363;28;20212;-67
2021/07/27 02:35:27;;;;;;;12.13;11.23;;;;;;;20.48;67.81;100628.59;5038205;28;20417;-67
2021/07/27 02:37:52;;;;;;;16.00;14.30;;;;;;;20.84;67.42;100626.50;5038106;28;20504;-67
2021/07/27 02:40:18;;;;;;;12.80;11.67;;;;;;;20.88;67.49;100627.25;5038598;28;20492;-66
2021/07/27 02:42:43;;;;;;;13.80;12.40;;;;;;;20.73;67.73;100623.38;5037992;28;20189;-67
2021/07/27 02:45:12;;;;;;;13.13;11.80;;;;;;;20.70;67.66;100626.09;5037995;28;20214;-67
2021/07/27 02:47:42;;;;;;;13.50;11.90;;;;;;;20.68;68.10;100627.91;5038332;28;20201;-67
2021/07/27 02:50:09;;;;;;;13.13;11.97;;;;;;;20.58;67.90;100630.03;5037882;28;20512;-66
2021/07/27 02:52:34;;;;;;;13.03;11.73;;;;;;;20.64;68.08;100624.50;5037813;28;20421;-66
2021/07/27 02:55:00;;;;;;;13.50;12.10;;;;;;;20.44;68.73;100626.97;5038480;28;20697;-66
2021/07/27 02:57:25;;;;;;;12.23;10.93;;;;;;;20.38;69.02;100627.16;5037948;28;20574;-65
2021/07/27 02:59:50;;;;;;;12.77;11.47;;;;;;;20.33;69.07;100629.97;5037815;28;20595;-66
2021/07/27 03:02:19;;;;;;;12.77;11.47;;;;;;;20.39;68.73;100627.13;5038363;28;20170;-66
2021/07/27 03:04:44;;;;;;;12.23;11.23;;;;;;;20.31;69.09;100626.47;5037763;28;20253;-65
2021/07/27 03:07:18;;;;;;;12.40;11.30;;;;;;;20.35;68.68;100636.94;5037592;28;20466;-65
2021/07/27 03:10:17;;;;;;;11.80;10.80;;;;;;;20.34;69.00;100632.56;5037554;28;20269;-67
2021/07/27 03:12:28;;;;;;;12.97;11.97;;;;;;;20.55;68.62;100632.75;5037490;28;20428;-67
2021/07/27 03:15:00;;;;;;;12.03;11.03;;;;;;;20.51;68.29;100628.47;5037679;28;20671;-68
2021/07/27 03:17:26;;;;;;;12.57;11.57;;;;;;;20.30;68.98;100625.63;5037732;28;20433;-66
2021/07/27 03:19:52;;;;;;;13.67;12.40;;;;;;;20.42;68.62;100619.06;5042174;28;20426;-66
2021/07/27 03:22:18;;;;;;;13.43;12.23;;;;;;;20.36;68.80;100629.84;5041508;28;20233;-66
2021/07/27 03:24:43;;;;;;;13.60;12.40;;;;;;;20.22;69.17;100632.97;5041598;28;20177;-66
2021/07/27 03:27:08;;;;;;;12.60;11.30;;;;;;;20.43;68.70;100631.41;5042076;28;20480;-66
2021/07/27 03:29:34;;;;;;;12.93;11.83;;;;;;;20.24;69.33;100630.25;5041573;28;20205;-65
2021/07/27 03:31:59;;;;;;;13.80;12.60;;;;;;;19.96;70.30;100623.22;5041404;28;20166;-66
2021/07/27 03:34:25;;;;;;;14.30;13.00;;;;;;;20.20;69.60;100624.19;5041779;28;20185;-66
2021/07/27 03:36:50;;;;;;;13.07;12.07;;;;;;;20.16;69.50;100628.72;5041488;28;20185;-66
2021/07/27 03:39:16;;;;;;;13.00;11.90;;;;;;;20.11;69.44;100629.81;5041551;28;20253;-65
2021/07/27 03:41:42;;;;;;;14.60;13.30;;;;;;;20.21;69.01;100630.38;5041855;28;20194;-66
2021/07/27 03:44:07;;;;;;;13.17;12.07;;;;;;;20.21;69.63;100631.22;5041358;28;20459;-66
2021/07/27 03:46:35;;;;;;;15.33;13.97;;;;;;;20.27;68.62;100624.84;5041312;28;20198;-66
2021/07/27 03:49:01;;;;;;;15.87;13.70;;;;;;;20.34;68.50;100631.69;5041890;28;20224;-67
2021/07/27 03:51:26;;;;;;;14.77;13.20;;;;;;;20.43;68.50;100635.81;5041255;28;20401;-68
2021/07/27 03:53:51;;;;;;;13.93;12.70;;;;;;;20.49;68.20;100640.91;5041156;28;20575;-66
2021/07/27 03:56:16;;;;;;;15.63;13.90;;;;;;;20.07;69.30;100642.25;5041975;28;20202;-67
2021/07/27 03:58:45;;;;;;;13.90;12.60;;;;;;;20.22;68.75;100640.91;5040642;28;20174;-67
2021/07/27 04:01:10;;;;;;;13.60;12.30;;;;;;;20.36;68.01;100641.31;5041296;28;20216;-67
2021/07/27 04:03:35;;;;;;;13.87;12.67;;;;;;;20.21;68.42;100635.66;5040646;28;20655;-67
2021/07/27 04:06:01;;;;;;;13.93;12.53;;;;;;;20.47;68.12;100648.03;5041559;28;20213;-67
2021/07/27 04:08:26;;;;;;;14.13;12.83;;;;;;;20.40;68.16;100647.38;5041291;28;20209;-66
2021/07/27 04:10:51;;;;;;;13.60;12.40;;;;;;;20.38;68.14;100653.63;5041232;28;20174;-66
2021/07/27 04:13:17;;;;;;;13.83;12.47;;;;;;;20.76;67.07;100643.59;5040819;28;20224;-66
2021/07/27 04:15:42;;;;;;;13.13;12.00;;;;;;;21.29;64.66;100639.94;5040645;28;20405;-67
2021/07/27 04:18:08;;;;;;;14.13;12.90;;;;;;;21.45;64.57;100649.06;5041243;28;20261;-67
2021/07/27 04:20:33;;;;;;;13.80;12.30;;;;;;;21.36;64.90;100649.41;5039941;28;20174;-67
2021/07/27 04:23:00;;;;;;;12.70;11.60;;;;;;;21.46;63.82;100650.81;5040165;28;20306;-68
2021/07/27 04:25:28;;;;;;;13.50;12.30;;;;;;;21.56;63.33;100656.66;5040995;28;20201;-67
2021/07/27 04:27:53;;;;;;;12.57;11.47;;;;;;;21.41;63.86;100651.91;5040356;28;20514;-67
2021/07/27 04:30:18;;;;;;;13.10;11.90;;;;;;;21.06;65.09;100656.69;5040042;28;20425;-67
2021/07/27 04:32:44;;;;;;;13.00;11.00;;;;;;;21.10;64.90;100651.22;5040770;28;20171;-67
2021/07/27 04:35:09;;;;;;;13.23;12.03;;;;;;;20.96;65.30;100657.00;5040266;28;20178;-67
2021/07/27 04:37:34;;;;;;;12.50;11.30;;;;;;;21.30;64.55;100645.19;5040158;28;20536;-67
2021/07/27 04:40:00;;;;;;;12.33;11.03;;;;;;;21.89;62.40;100650.97;5040603;28;20296;-67
2021/07/27 04:42:25;;;;;;;13.00;11.73;;;;;;;22.43;60.53;100651.50;5040316;28;20269;-66
2021/07/27 04:44:50;;;;;;;12.20;11.20;;;;;;;22.96;58.68;100649.28;5040058;28;20194;-66
2021/07/27 04:47:15;;;;;;;12.37;11.20;;;;;;;23.37;57.20;100651.94;5040627;28;20297;-67
2021/07/27 04:49:45;;;;;;;12.23;11.13;;;;;;;24.31;54.58;100646.69;5040177;28;20166;-67
2021/07/27 04:52:12;;;;;;;11.20;10.03;;;;;;;24.78;52.93;100659.44;5040235;28;20182;-67
2021/07/27 04:54:50;;;;;;;10.93;10.03;;;;;;;23.37;56.42;100662.59;5040348;28;20406;-65
2021/07/27 04:57:15;;;;;;;11.17;10.30;;;;;;;22.65;59.06;100669.19;5039525;28;20412;-66
2021/07/27 04:59:41;;;;;;;11.90;10.90;;;;;;;22.23;60.54;100670.00;5039953;28;20417;-67
2021/07/27 05:02:07;;;;;;;12.70;11.43;;;;;;;22.11;60.80;100674.88;5039820;28;20559;-66
2021/07/27 05:04:34;;;;;;;11.27;10.37;;;;;;;21.69;62.62;100667.69;5039729;28;20193;-66
2021/07/27 05:07:00;;;;;;;12.67;11.53;;;;;;;21.83;61.32;100665.34;5040060;28;20830;-66
2021/07/27 05:09:26;;;;;;;12.20;11.20;;;;;;;22.10;60.76;100673.16;5039960;28;20452;-65
2021/07/27 05:11:51;;;;;;;12.37;11.33;;;;;;;22.42;59.61;100673.69;5039810;28;20249;-67
2021/07/27 05:14:16;;;;;;;13.73;12.40;;;;;;;23.59;56.65;100666.94;5040175;28;20764;-67
2021/07/27 05:16:42;;;;;;;13.83;12.30;;;;;;;23.81;55.74;100667.63;5039798;28;20175;-67
2021/07/27 05:19:07;;;;;;;12.63;11.40;;;;;;;23.49;55.94;100661.13;5039501;28;20216;-66
2021/07/27 05:21:33;;;;;;;12.70;11.60;;;;;;;23.78;55.57;100665.13;5039880;28;20191;-65
2021/07/27 05:23:58;;;;;;;13.93;12.43;;;;;;;23.09;57.02;100658.44;5039207;28;20230;-65
2021/07/27 05:26:23;;;;;;;13.57;12.37;;;;;;;23.77;55.79;100663.38;5039394;28;20540;-65
2021/07/27 05:28:49;;;;;;;12.20;11.07;;;;;;;23.58;56.62;100666.03;5039773;28;20170;-66
2021/07/27 05:31:14;;;;;;;13.20;12.00;;;;;;;23.25;57.06;100663.16;5039404;28;20224;-65
2021/07/27 05:33:39;;;;;;;15.07;13.60;;;;;;;22.75;57.76;100665.22;5039028;28;20178;-65
2021/07/27 05:36:06;;;;;;;13.33;12.10;;;;;;;22.68;58.93;100675.25;5040051;28;20472;-65
2021/07/27 05:38:32;;;;;;;15.07;13.60;;;;;;;22.26;60.04;100676.06;5039349;28;20166;-65
2021/07/27 05:40:57;;;;;;;19.37;17.37;;;;;;;22.65;59.17;100671.84;5038242;28;20467;-65
2021/07/27 05:43:22;;;;;;;15.27;13.77;;;;;;;22.94;58.04;100659.13;5039391;28;20170;-65
2021/07/27 05:45:47;;;;;;;16.43;15.03;;;;;;;23.48;56.93;100662.94;5038992;28;20218;-66
2021/07/27 05:48:13;;;;;;;15.97;14.57;;;;;;;23.64;56.33;100657.78;5038878;28;20263;-66
2021/07/27 05:50:38;;;;;;;14.90;13.63;;;;;;;24.30;54.46;100666.25;5039399;28;20169;-66
2021/07/27 05:53:03;;;;;;;15.50;13.90;;;;;;;24.29;53.43;100659.19;5038638;28;20590;-66
2021/07/27 05:55:29;;;;;;;15.67;14.30;;;;;;;24.66;53.22;100668.91;5038919;28;20594;-65
2021/07/27 05:57:54;;;;;;;14.60;13.40;;;;;;;24.11;54.55;100669.84;5039544;28;20220;-66
2021/07/27 06:00:19;;;;;;;15.17;13.73;;;;;;;23.74;55.70;100666.19;5038692;28;20228;-66
2021/07/27 06:02:45;;;;;;;16.40;14.80;;;;;;;23.02;58.28;100655.19;5038498;28;20264;-65
2021/07/27 06:05:10;;;;;;;17.03;15.33;;;;;;;22.68;59.13;100661.97;5039424;28;20166;-65
2021/07/27 06:07:36;;;;;;;17.00;15.57;;;;;;;22.59;59.73;100653.53;5038627;28;20202;-65
2021/07/27 06:10:01;;;;;;;16.27;14.77;;;;;;;22.12;61.67;100660.69;5039404;28;20190;-65
2021/07/27 06:12:26;;;;;;;17.07;15.40;;;;;;;22.52;59.78;100656.44;5039378;28;20527;-64
2021/07/27 06:14:52;;;;;;;17.57;16.00;;;;;;;22.68;59.85;100669.09;5038474;28;20170;-65
2021/07/27 06:17:17;;;;;;;18.47;16.67;;;;;;;23.02;58.41;100660.50;5038592;28;20178;-65
2021/07/27 06:19:42;;;;;;;17.93;16.10;;;;;;;22.70;59.66;100667.22;5038787;28;20174;-64
2021/07/27 06:22:08;;;;;;;18.17;16.47;;;;;;;23.33;58.52;100668.97;5038239;28;20436;-65
2021/07/27 06:24:33;;;;;;;17.17;15.47;;;;;;;24.68;54.61;100667.06;5038377;28;20186;-65
2021/07/27 06:26:58;;;;;;;16.80;15.30;;;;;;;26.34;49.71;100648.34;5038687;28;20217;-65
2021/07/27 06:29:25;;;;;;;14.47;13.07;;;;;;;27.98;45.77;100656.28;5038328;28;20202;-65
2021/07/27 06:31:50;;;;;;;15.43;13.13;;;;;;;28.82;43.67;100652.56;5038062;28;20686;-65
2021/07/27 06:34:16;;;;;;;14.70;13.30;;;;;;;28.88;42.47;100662.84;5038439;28;20178;-65
2021/07/27 06:36:41;;;;;;;12.77;11.57;;;;;;;29.09;41.92;100654.25;5038155;28;20426;-65
2021/07/27 06:39:06;;;;;;;12.97;11.80;;;;;;;28.92;42.17;100655.44;5038141;28;20181;-65
2021/07/27 06:41:31;;;;;;;12.93;11.93;;;;;;;29.36;41.79;100666.75;5038584;28;20170;-64
2021/07/27 06:43:57;;;;;;;12.20;11.30;;;;;;;29.52;41.40;100667.34;5037904;28;20257;-64
2021/07/27 06:46:22;;;;;;;11.97;10.97;;;;;;;29.28;41.38;100666.44;5037860;28;20553;-66
2021/07/27 06:48:48;;;;;;;11.77;10.70;;;;;;;30.65;39.22;100663.66;5038428;28;20178;-65
2021/07/27 06:51:15;;;;;;;12.37;10.90;;;;;;;30.39;38.90;100663.78;5037938;28;20499;-65
2021/07/27 06:53:41;;;;;;;13.17;11.17;;;;;;;30.44;39.28;100663.44;5037555;28;20205;-65
2021/07/27 06:56:07;;;;;;;11.23;10.23;;;;;;;31.97;35.93;100662.31;5038527;28;20424;-65
2021/07/27 06:58:37;;;;;;;11.83;10.83;;;;;;;30.10;39.55;100664.13;5037912;28;20663;-66
2021/07/27 07:01:04;;;;;;;12.30;11.10;;;;;;;31.98;35.62;100664.03;5037716;28;20182;-67
2021/07/27 07:03:30;;;;;;;12.00;11.00;;;;;;;30.53;38.46;100665.47;5037074;28;20478;-65
2021/07/27 07:05:55;;;;;;;13.53;11.73;;;;;;;30.96;37.54;100667.56;5037711;28;20429;-66
2021/07/27 07:08:22;;;;;;;12.07;10.70;;;;;;;31.37;36.97;100660.75;5037486;28;20206;-66
2021/07/27 07:10:54;;;;;;;13.60;12.50;;;;;;;31.24;36.99;100673.47;5037901;28;20174;-66
2021/07/27 07:13:19;;;;;;;12.10;11.07;;;;;;;31.76;36.05;100676.56;5037274;28;20413;-65
2021/07/27 07:15:44;;;;;;;12.30;11.30;;;;;;;30.88;37.67;100676.22;5037252;28;20432;-66
2021/07/27 07:18:10;;;;;;;12.07;10.97;;;;;;;31.74;36.17;100674.00;5037937;28;20171;-67
2021/07/27 07:20:35;;;;;;;11.00;10.10;;;;;;;32.36;35.08;100673.50;5037419;28;20274;-67
2021/07/27 07:23:00;;;;;;;10.90;10.07;;;;;;;31.62;36.21;100680.38;5037006;28;20496;-66
2021/07/27 07:25:26;;;;;;;11.40;10.53;;;;;;;32.37;35.54;100683.31;5037847;28;20178;-68
2021/07/27 07:27:51;;;;;;;11.87;10.87;;;;;;;32.37;34.96;100677.94;5037568;28;20202;-67
2021/07/27 07:30:16;;;;;;;11.87;10.90;;;;;;;32.18;34.85;100676.75;5037573;28;20170;-67
2021/07/27 07:32:42;;;;;;;12.50;11.50;;;;;;;31.72;36.15;100678.66;5038187;28;20181;-67
2021/07/27 07:35:07;;;;;;;11.57;10.67;;;;;;;30.41;38.16;100683.34;5037445;28;20245;-66
2021/07/27 07:37:33;;;;;;;10.63;9.63;;;;;;;30.96;37.20;100682.81;5037293;28;20196;-66
2021/07/27 07:39:58;;;;;;;10.87;10.00;;;;;;;30.89;37.04;100677.94;5037748;28;20177;-66
2021/07/27 07:42:23;;;;;;;11.67;10.67;;;;;;;31.35;36.74;100678.88;5037418;28;20166;-66
2021/07/27 07:44:48;;;;;;;11.43;10.20;;;;;;;30.81;37.90;100687.56;5037202;28;20187;-66
2021/07/27 07:47:14;;;;;;;10.50;9.60;;;;;;;30.35;39.05;100686.50;5038025;28;20457;-67
2021/07/27 07:49:39;;;;;;;10.63;9.83;;;;;;;30.53;38.38;100685.16;5037544;28;20174;-66
2021/07/27 07:52:05;;;;;;;12.47;9.73;;;;;;;30.26;39.39;100687.22;5037558;28;20468;-66
2021/07/27 07:54:31;;;;;;;11.03;10.13;;;;;;;31.43;37.53;100682.81;5037575;28;20257;-66
2021/07/27 07:56:57;;;;;;;9.87;9.07;;;;;;;31.43;36.45;100680.94;5037329;28;20159;-66
2021/07/27 07:59:22;;;;;;;9.93;9.13;;;;;;;32.00;35.70;100675.53;5037208;28;20857;-66
2021/07/27 08:01:49;;;;;;;9.93;9.00;;;;;;;32.37;35.62;100686.03;5037556;28;20167;-66
2021/07/27 08:04:15;;;;;;;10.57;9.67;;;;;;;30.89;38.16;100682.44;5038291;28;20162;-65
2021/07/27 08:06:40;;;;;;;10.83;9.93;;;;;;;30.54;38.30;100689.56;5040809;28;20492;-67
2021/07/27 08:09:06;;;;;;;11.27;10.17;;;;;;;27.80;43.42;100694.03;5041176;28;20262;-66
2021/07/27 08:11:31;;;;;;;11.63;10.63;;;;;;;27.09;45.54;100700.19;5040690;28;20440;-65
2021/07/27 08:13:58;;;;;;;14.30;12.03;;;;;;;26.50;46.69;100700.94;5040801;28;20170;-66
2021/07/27 08:16:23;;;;;;;11.47;10.57;;;;;;;25.80;48.82;100706.59;5041205;28;20205;-66
2021/07/27 08:18:48;;;;;;;12.93;11.73;;;;;;;25.24;50.65;100706.03;5040635;28;20449;-66
2021/07/27 08:21:14;;;;;;;13.70;12.40;;;;;;;24.85;51.58;100716.84;5040432;28;20277;-66
2021/07/27 08:23:44;;;;;;;13.17;11.90;;;;;;;24.64;52.34;100712.59;5040010;28;20566;-66
2021/07/27 08:26:09;;;;;;;13.90;12.53;;;;;;;24.11;54.05;100715.13;5039492;28;20182;-66
2021/07/27 08:28:34;;;;;;;14.00;12.67;;;;;;;23.97;53.70;100723.72;5040443;28;20487;-65
2021/07/27 08:31:00;;;;;;;13.27;12.00;;;;;;;23.81;54.35;100718.22;5040038;28;20182;-66
2021/07/27 08:33:25;;;;;;;13.13;11.90;;;;;;;23.85;54.57;100722.47;5040013;28;20174;-66
2021/07/27 08:35:51;;;;;;;13.20;11.83;;;;;;;24.06;54.47;100725.13;5040544;28;20178;-66
2021/07/27 08:38:17;;;;;;;14.03;12.73;;;;;;;23.70;55.50;100724.03;5040106;28;20170;-66
2021/07/27 08:40:43;;;;;;;12.73;11.53;;;;;;;23.58;55.64;100739.72;5040011;28;20428;-66
2021/07/27 08:43:09;;;;;;;14.07;12.87;;;;;;;23.69;56.10;100734.75;5039673;28;20201;-66
2021/07/27 08:45:34;;;;;;;14.00;12.70;;;;;;;24.07;55.40;100734.81;5039973;28;20465;-66
2021/07/27 08:47:59;;;;;;;13.17;11.97;;;;;;;25.44;52.87;100723.66;5039877;28;20651;-65
2021/07/27 08:50:28;;;;;;;14.47;13.27;;;;;;;26.64;48.17;100724.19;5041138;28;20224;-66
2021/07/27 08:52:53;;;;;;;13.30;12.20;;;;;;;27.11;47.68;100728.56;5039674;28;20224;-66
2021/07/27 08:55:19;;;;;;;13.93;11.50;;;;;;;26.58;47.09;100727.25;5038995;28;20417;-66
2021/07/27 08:57:58;;;;;;;12.20;11.07;;;;;;;24.87;51.98;100733.63;5040107;28;20166;-66
2021/07/27 09:00:27;;;;;;;13.07;11.97;;;;;;;25.76;50.31;100732.59;5039120;28;20457;-67
2021/07/27 09:02:52;;;;;;;11.60;10.60;;;;;;;25.87;50.09;100734.69;5039308;28;20416;-66
2021/07/27 09:05:18;;;;;;;11.73;10.53;;;;;;;25.92;48.79;100729.13;5039470;28;20882;-65
2021/07/27 09:07:43;;;;;;;11.40;9.57;;;;;;;25.94;49.24;100733.44;5039510;28;20256;-64
2021/07/27 09:10:12;;;;;;;10.33;9.50;;;;;;;25.23;49.92;100737.16;5040174;28;20500;-65
2021/07/27 09:12:37;;;;;;;11.40;10.40;;;;;;;25.67;50.06;100733.13;5039227;28;20257;-64
2021/07/27 09:15:07;;;;;;;10.67;9.67;;;;;;;26.15;48.35;100728.72;5038710;28;20432;-64
2021/07/27 09:17:33;;;;;;;11.57;10.37;;;;;;;25.27;50.13;100737.88;5038786;28;20193;-65
2021/07/27 09:19:58;;;;;;;10.77;9.87;;;;;;;25.07;50.94;100736.22;5039235;28;20439;-64
2021/07/27 09:22:23;;;;;;;12.07;10.87;;;;;;;25.48;50.27;100738.56;5039095;28;20460;-65
2021/07/27 09:24:49;;;;;;;10.70;9.80;;;;;;;24.99;51.58;100739.28;5039581;28;20586;-65
2021/07/27 09:27:14;;;;;;;12.83;11.63;;;;;;;24.67;52.33;100739.97;5039218;28;20216;-65
2021/07/27 09:29:46;;;;;;;10.43;9.53;;;;;;;24.55;52.31;100744.06;5039391;28;20198;-65
2021/07/27 09:32:16;;;;;;;10.03;9.20;;;;;;;24.60;52.38;100741.19;5039855;28;20170;-64
2021/07/27 09:34:42;;;;;;;11.10;10.10;;;;;;;25.14;50.60;100741.19;5039354;28;20428;-64
2021/07/27 09:37:08;;;;;;;10.63;9.73;;;;;;;26.73;47.71;100724.53;5039231;28;20860;-65
2021/07/27 09:39:35;;;;;;;11.27;10.20;;;;;;;28.28;43.17;100724.97;5039737;28;20171;-65
2021/07/27 09:42:08;;;;;;;10.10;9.20;;;;;;;30.04;39.12;100718.38;5039185;28;20178;-65
2021/07/27 09:44:35;;;;;;;9.97;8.97;;;;;;;28.92;41.03;100719.00;5039046;28;20441;-65
2021/07/27 09:47:01;;;;;;;9.47;8.57;;;;;;;28.32;42.59;100716.63;5039133;28;20790;-66
2021/07/27 09:49:27;;;;;;;10.37;9.57;;;;;;;27.20;44.70;100719.16;5039091;28;20413;-66
2021/07/27 09:51:53;;;;;;;12.03;10.83;;;;;;;26.47;47.56;100719.84;5039426;28;20739;-67
2021/07/27 09:54:19;;;;;;;11.73;10.50;;;;;;;25.89;50.43;100731.00;5038700;28;20185;-66
2021/07/27 09:56:45;;;;;;;12.47;11.37;;;;;;;25.01;54.03;100746.25;5038321;28;20409;-66
2021/07/27 09:59:14;;;;;;;12.90;11.70;;;;;;;23.72;59.26;100750.59;5039246;28;20409;-66
2021/07/27 10:01:42;;;;;;;11.83;10.83;;;;;;;23.90;58.57;100748.06;5038824;28;20265;-66
2021/07/27 10:04:07;;;;;;;12.70;11.60;;;;;;;23.90;58.14;100745.41;5037841;28;20417;-67
2021/07/27 10:06:36;;;;;;;14.00;12.77;;;;;;;24.17;57.40;100752.09;5045840;28;20416;-65
2021/07/27 10:09:02;;;;;;;14.20;12.90;;;;;;;24.33;56.69;100749.56;5058584;28;20547;-65
2021/07/27 10:11:35;;;;;;;15.83;13.67;;;;;;;24.35;57.70;100742.34;5058550;28;20427;-66
2021/07/27 10:14:11;;;;;;;15.60;13.30;;;;;;;24.66;55.74;100745.38;5058552;28;20408;-66
2021/07/27 10:16:37;;;;;;;11.33;10.43;;;;;;;25.58;53.15;100745.16;5058254;28;20688;-65
2021/07/27 10:19:12;;;;;;;13.33;11.10;;;;;;;26.28;51.38;100746.75;5058627;28;20416;-66
2021/07/27 10:21:38;;;;;;;11.67;10.67;;;;;;;27.21;48.40;100743.13;5058604;28;20459;-66
2021/07/27 10:24:19;;;;;;;12.37;11.23;;;;;;;28.45;44.88;100743.50;5051579;28;20472;-65
2021/07/27 10:26:45;;;;;;;12.50;11.40;;;;;;;29.51;42.66;100732.81;5044217;28;20502;-65
2021/07/27 10:29:10;;;;;;;12.73;11.53;;;;;;;30.00;41.42;100738.34;5053463;28;20535;-65
2021/07/27 10:31:44;;;;;;;12.60;11.53;;;;;;;30.76;39.35;100740.88;5057226;28;20173;-65
2021/07/27 10:34:11;;;;;;;12.23;11.13;;;;;;;31.62;38.21;100730.72;5038566;28;20170;-66
2021/07/27 10:36:41;;;;;;;12.27;11.17;;;;;;;31.26;38.64;100738.88;5038182;28;20483;-66
2021/07/27 10:39:17;;;;;;;11.77;10.77;;;;;;;30.39;40.54;100734.56;5036742;28;20456;-66
2021/07/27 10:41:47;;;;;;;13.60;12.30;;;;;;;30.10;41.13;100734.03;5055178;28;20691;-65
2021/07/27 10:44:14;;;;;;;12.17;11.17;;;;;;;29.96;41.39;100731.47;5057598;28;20408;-66
2021/07/27 10:46:42;;;;;;;13.20;12.00;;;;;;;29.42;42.93;100729.91;5058062;28;20561;-65
2021/07/27 10:49:15;;;;;;;12.77;11.70;;;;;;;29.39;41.98;100722.94;5057678;28;20478;-65
2021/07/27 10:51:40;;;;;;;13.23;12.10;;;;;;;28.16;44.64;100743.56;5056675;28;20478;-65
2021/07/27 10:54:06;;;;;;;14.47;13.13;;;;;;;26.24;49.12;100732.69;5056882;28;20512;-65
2021/07/27 10:56:31;;;;;;;13.77;12.50;;;;;;;26.56;47.82;100736.22;5057596;28;20165;-65
2021/07/27 10:59:01;;;;;;;13.50;11.90;;;;;;;27.42;45.99;100725.91;5042590;28;20173;-64
2021/07/27 11:01:31;;;;;;;14.80;12.43;;;;;;;27.68;45.30;100730.47;5037784;28;20539;-64
2021/07/27 11:04:11;;;;;;;13.53;12.27;;;;;;;26.45;47.68;100733.28;5037841;28;20420;-66
2021/07/27 11:06:38;;;;;;;12.80;11.47;;;;;;;26.51;48.13;100734.75;5037645;28;20502;-65
2021/07/27 11:09:03;;;;;;;12.47;11.40;;;;;;;27.04;46.97;100732.59;5037695;28;20419;-65
2021/07/27 11:11:29;;;;;;;11.20;10.20;;;;;;;27.83;45.02;100734.03;5037708;28;20420;-66
2021/07/27 11:13:54;;;;;;;11.30;10.30;;;;;;;28.11;43.64;100740.31;5038835;28;20220;-67
2021/07/27 11:16:20;;;;;;;11.00;9.23;;;;;;;29.27;40.41;100723.78;5057823;28;20227;-66
2021/07/27 11:18:46;;;;;;;9.90;8.90;;;;;;;29.34;40.54;100730.44;5057446;28;20411;-65
2021/07/27 11:21:12;;;;;;;10.67;9.67;;;;;;;29.61;39.41;100726.81;5057455;28;20229;-65
2021/07/27 11:23:37;;;;;;;9.93;9.10;;;;;;;29.89;39.37;100723.88;5056271;28;20547;-65
2021/07/27 11:26:03;;;;;;;11.07;10.17;;;;;;;28.24;42.52;100732.38;5057285;28;20531;-65
2021/07/27 11:28:36;;;;;;;11.70;10.70;;;;;;;28.51;42.44;100736.84;5057538;28;20217;-66